sensor_id;sensor_type;location;lat;lon;timestamp;P1;durP1;ratioP1;P2;durP2;ratioP2
37857;SDS011;23695;55.868;37.472;2022-07-06T00:01:30;36.10;;;26.75;;
37857;SDS011;23695;55.868;37.472;2022-07-06T00:03:56;31.77;;;26.50;;
37857;SDS011;23695;55.868;37.472;2022-07-06T00:06:22;32.53;;;26.63;;
37857;SDS011;23695;55.868;37.472;2022-07-06T00:08:49;32.88;;;27.52;;
37857;SDS011;23695;55.868;37.472;2022-07-06T00:11:15;32.50;;;26.55;;
37857;SDS011;23695;55.868;37.472;2022-07-06T00:13:41;33.80;;;25.90;;
37857;SDS011;23695;55.868;37.472;2022-07-06T00:16:07;32.78;;;27.05;;
37857;SDS011;23695;55.868;37.472;2022-07-06T00:18:33;32.58;;;27.02;;
37857;SDS011;23695;55.868;37.472;2022-07-06T00:20:59;32.72;;;25.73;;
37857;SDS011;23695;55.868;37.472;2022-07-06T00:23:25;34.72;;;25.75;;
37857;SDS011;23695;55.868;37.472;2022-07-06T00:25:51;31.50;;;27.73;;
37857;SDS011;23695;55.868;37.472;2022-07-06T00:28:17;33.83;;;26.75;;
37857;SDS011;23695;55.868;37.472;2022-07-06T00:30:42;34.42;;;26.88;;
37857;SDS011;23695;55.868;37.472;2022-07-06T00:33:08;36.95;;;27.42;;
37857;SDS011;23695;55.868;37.472;2022-07-06T00:35:34;31.88;;;25.42;;
37857;SDS011;23695;55.868;37.472;2022-07-06T00:38:00;34.10;;;26.95;;
37857;SDS011;23695;55.868;37.472;2022-07-06T00:40:26;32.53;;;26.65;;
37857;SDS011;23695;55.868;37.472;2022-07-06T00:42:52;32.60;;;26.83;;
37857;SDS011;23695;55.868;37.472;2022-07-06T00:45:18;32.03;;;26.50;;
37857;SDS011;23695;55.868;37.472;2022-07-06T00:47:44;31.80;;;25.77;;
37857;SDS011;23695;55.868;37.472;2022-07-06T00:50:12;36.92;;;26.70;;
37857;SDS011;23695;55.868;37.472;2022-07-06T00:52:41;32.40;;;26.33;;
37857;SDS011;23695;55.868;37.472;2022-07-06T00:55:09;33.90;;;27.50;;
37857;SDS011;23695;55.868;37.472;2022-07-06T00:57:36;33.42;;;26.77;;
37857;SDS011;23695;55.868;37.472;2022-07-06T01:00:03;33.67;;;27.02;;
37857;SDS011;23695;55.868;37.472;2022-07-06T01:02:34;31.85;;;27.10;;
37857;SDS011;23695;55.868;37.472;2022-07-06T01:05:00;29.73;;;24.90;;
37857;SDS011;23695;55.868;37.472;2022-07-06T01:07:28;36.35;;;26.42;;
37857;SDS011;23695;55.868;37.472;2022-07-06T01:09:54;31.23;;;25.98;;
37857;SDS011;23695;55.868;37.472;2022-07-06T01:12:21;33.97;;;26.35;;
37857;SDS011;23695;55.868;37.472;2022-07-06T01:14:47;31.27;;;25.27;;
37857;SDS011;23695;55.868;37.472;2022-07-06T01:17:13;36.35;;;25.60;;
37857;SDS011;23695;55.868;37.472;2022-07-06T01:19:40;32.25;;;26.02;;
37857;SDS011;23695;55.868;37.472;2022-07-06T01:22:06;29.35;;;26.05;;
37857;SDS011;23695;55.868;37.472;2022-07-06T01:24:34;31.90;;;26.27;;
37857;SDS011;23695;55.868;37.472;2022-07-06T01:27:01;31.80;;;26.60;;
37857;SDS011;23695;55.868;37.472;2022-07-06T01:29:27;33.33;;;27.85;;
37857;SDS011;23695;55.868;37.472;2022-07-06T01:31:53;32.15;;;26.60;;
37857;SDS011;23695;55.868;37.472;2022-07-06T01:34:19;35.88;;;27.50;;
37857;SDS011;23695;55.868;37.472;2022-07-06T01:36:45;31.92;;;27.38;;
37857;SDS011;23695;55.868;37.472;2022-07-06T01:39:11;34.13;;;28.45;;
37857;SDS011;23695;55.868;37.472;2022-07-06T01:41:37;36.05;;;28.08;;
37857;SDS011;23695;55.868;37.472;2022-07-06T01:44:03;36.40;;;26.48;;
37857;SDS011;23695;55.868;37.472;2022-07-06T01:46:29;39.58;;;29.17;;
37857;SDS011;23695;55.868;37.472;2022-07-06T01:48:56;37.83;;;25.15;;
37857;SDS011;23695;55.868;37.472;2022-07-06T01:51:22;37.15;;;26.83;;
37857;SDS011;23695;55.868;37.472;2022-07-06T01:53:49;30.63;;;25.38;;
37857;SDS011;23695;55.868;37.472;2022-07-06T01:56:17;32.22;;;26.77;;
37857;SDS011;23695;55.868;37.472;2022-07-06T01:58:50;37.78;;;27.85;;
37857;SDS011;23695;55.868;37.472;2022-07-06T02:01:17;45.10;;;28.20;;
37857;SDS011;23695;55.868;37.472;2022-07-06T02:03:45;42.53;;;28.63;;
37857;SDS011;23695;55.868;37.472;2022-07-06T02:06:11;40.90;;;27.80;;
37857;SDS011;23695;55.868;37.472;2022-07-06T02:08:38;36.85;;;25.85;;
37857;SDS011;23695;55.868;37.472;2022-07-06T02:11:05;34.80;;;25.73;;
37857;SDS011;23695;55.868;37.472;2022-07-06T02:13:34;44.28;;;25.90;;
37857;SDS011;23695;55.868;37.472;2022-07-06T02:16:21;33.97;;;24.48;;
37857;SDS011;23695;55.868;37.472;2022-07-06T02:18:46;37.17;;;26.10;;
37857;SDS011;23695;55.868;37.472;2022-07-06T02:21:12;37.28;;;25.13;;
37857;SDS011;23695;55.868;37.472;2022-07-06T02:23:38;39.97;;;26.63;;
37857;SDS011;23695;55.868;37.472;2022-07-06T02:26:04;35.13;;;25.95;;
37857;SDS011;23695;55.868;37.472;2022-07-06T02:28:30;31.85;;;24.55;;
37857;SDS011;23695;55.868;37.472;2022-07-06T02:30:57;32.10;;;24.83;;
37857;SDS011;23695;55.868;37.472;2022-07-06T02:33:23;32.25;;;24.63;;
37857;SDS011;23695;55.868;37.472;2022-07-06T02:35:49;32.92;;;22.60;;
37857;SDS011;23695;55.868;37.472;2022-07-06T02:38:15;29.90;;;20.13;;
37857;SDS011;23695;55.868;37.472;2022-07-06T02:40:41;28.95;;;19.40;;
37857;SDS011;23695;55.868;37.472;2022-07-06T02:43:07;26.40;;;20.00;;
37857;SDS011;23695;55.868;37.472;2022-07-06T02:45:34;25.75;;;20.05;;
37857;SDS011;23695;55.868;37.472;2022-07-06T02:48:01;28.90;;;20.65;;
37857;SDS011;23695;55.868;37.472;2022-07-06T02:50:28;26.02;;;19.15;;
37857;SDS011;23695;55.868;37.472;2022-07-06T02:52:54;30.42;;;18.88;;
37857;SDS011;23695;55.868;37.472;2022-07-06T02:55:21;25.08;;;17.73;;
37857;SDS011;23695;55.868;37.472;2022-07-06T02:57:48;24.15;;;15.90;;
37857;SDS011;23695;55.868;37.472;2022-07-06T03:00:14;18.95;;;15.65;;
37857;SDS011;23695;55.868;37.472;2022-07-06T03:02:42;19.25;;;17.20;;
37857;SDS011;23695;55.868;37.472;2022-07-06T03:05:09;20.15;;;16.05;;
37857;SDS011;23695;55.868;37.472;2022-07-06T03:07:35;24.85;;;17.10;;
37857;SDS011;23695;55.868;37.472;2022-07-06T03:10:01;19.05;;;15.15;;
37857;SDS011;23695;55.868;37.472;2022-07-06T03:12:28;17.52;;;15.52;;
37857;SDS011;23695;55.868;37.472;2022-07-06T03:14:55;21.17;;;15.77;;
37857;SDS011;23695;55.868;37.472;2022-07-06T03:17:21;20.98;;;15.27;;
37857;SDS011;23695;55.868;37.472;2022-07-06T03:19:48;18.80;;;14.98;;
37857;SDS011;23695;55.868;37.472;2022-07-06T03:22:14;17.45;;;14.32;;
37857;SDS011;23695;55.868;37.472;2022-07-06T03:24:41;23.75;;;13.95;;
37857;SDS011;23695;55.868;37.472;2022-07-06T03:27:07;20.40;;;13.77;;
37857;SDS011;23695;55.868;37.472;2022-07-06T03:29:34;19.08;;;13.75;;
37857;SDS011;23695;55.868;37.472;2022-07-06T03:32:00;13.80;;;12.07;;
37857;SDS011;23695;55.868;37.472;2022-07-06T03:34:26;16.08;;;13.20;;
37857;SDS011;23695;55.868;37.472;2022-07-06T03:36:52;14.63;;;11.95;;
37857;SDS011;23695;55.868;37.472;2022-07-06T03:39:18;15.25;;;12.90;;
37857;SDS011;23695;55.868;37.472;2022-07-06T03:41:44;16.20;;;12.95;;
37857;SDS011;23695;55.868;37.472;2022-07-06T03:44:10;18.05;;;12.57;;
37857;SDS011;23695;55.868;37.472;2022-07-06T03:46:36;17.15;;;12.43;;
37857;SDS011;23695;55.868;37.472;2022-07-06T03:49:02;15.75;;;12.10;;
37857;SDS011;23695;55.868;37.472;2022-07-06T03:51:28;16.65;;;12.13;;
37857;SDS011;23695;55.868;37.472;2022-07-06T03:53:54;14.02;;;11.50;;
37857;SDS011;23695;55.868;37.472;2022-07-06T03:56:20;20.45;;;11.48;;
37857;SDS011;23695;55.868;37.472;2022-07-06T03:59:00;15.82;;;11.90;;
37857;SDS011;23695;55.868;37.472;2022-07-06T04:01:31;16.95;;;11.23;;
37857;SDS011;23695;55.868;37.472;2022-07-06T04:03:58;15.75;;;11.30;;
37857;SDS011;23695;55.868;37.472;2022-07-06T04:06:24;16.27;;;10.90;;
37857;SDS011;23695;55.868;37.472;2022-07-06T04:08:51;13.60;;;10.88;;
37857;SDS011;23695;55.868;37.472;2022-07-06T04:11:18;16.77;;;10.95;;
37857;SDS011;23695;55.868;37.472;2022-07-06T04:13:44;14.30;;;10.75;;
37857;SDS011;23695;55.868;37.472;2022-07-06T04:16:10;15.20;;;9.68;;
37857;SDS011;23695;55.868;37.472;2022-07-06T04:18:36;12.88;;;9.98;;
37857;SDS011;23695;55.868;37.472;2022-07-06T04:21:03;14.38;;;9.73;;
37857;SDS011;23695;55.868;37.472;2022-07-06T04:23:31;10.27;;;9.27;;
37857;SDS011;23695;55.868;37.472;2022-07-06T04:25:58;21.05;;;9.75;;
37857;SDS011;23695;55.868;37.472;2022-07-06T04:28:25;15.18;;;9.18;;
37857;SDS011;23695;55.868;37.472;2022-07-06T04:30:51;12.48;;;8.73;;
37857;SDS011;23695;55.868;37.472;2022-07-06T04:33:21;10.25;;;8.63;;
37857;SDS011;23695;55.868;37.472;2022-07-06T04:35:48;13.23;;;8.52;;
37857;SDS011;23695;55.868;37.472;2022-07-06T04:38:14;9.07;;;8.23;;
37857;SDS011;23695;55.868;37.472;2022-07-06T04:40:41;12.65;;;8.27;;
37857;SDS011;23695;55.868;37.472;2022-07-06T04:43:11;19.10;;;8.27;;
37857;SDS011;23695;55.868;37.472;2022-07-06T04:45:37;10.98;;;8.23;;
37857;SDS011;23695;55.868;37.472;2022-07-06T04:48:03;13.43;;;8.25;;
37857;SDS011;23695;55.868;37.472;2022-07-06T04:50:30;14.77;;;8.07;;
37857;SDS011;23695;55.868;37.472;2022-07-06T04:53:00;12.85;;;8.52;;
37857;SDS011;23695;55.868;37.472;2022-07-06T04:55:27;15.52;;;8.27;;
37857;SDS011;23695;55.868;37.472;2022-07-06T04:57:53;9.90;;;8.30;;
37857;SDS011;23695;55.868;37.472;2022-07-06T05:00:21;11.43;;;7.25;;
37857;SDS011;23695;55.868;37.472;2022-07-06T05:02:48;13.60;;;7.30;;
37857;SDS011;23695;55.868;37.472;2022-07-06T05:05:14;10.10;;;7.45;;
37857;SDS011;23695;55.868;37.472;2022-07-06T05:07:40;9.77;;;6.85;;
37857;SDS011;23695;55.868;37.472;2022-07-06T05:10:08;10.55;;;6.50;;
37857;SDS011;23695;55.868;37.472;2022-07-06T05:12:36;8.02;;;6.20;;
37857;SDS011;23695;55.868;37.472;2022-07-06T05:15:02;8.02;;;6.13;;
37857;SDS011;23695;55.868;37.472;2022-07-06T05:17:29;11.73;;;6.53;;
37857;SDS011;23695;55.868;37.472;2022-07-06T05:19:57;10.75;;;5.72;;
37857;SDS011;23695;55.868;37.472;2022-07-06T05:22:23;7.13;;;6.18;;
37857;SDS011;23695;55.868;37.472;2022-07-06T05:24:50;10.30;;;6.00;;
37857;SDS011;23695;55.868;37.472;2022-07-06T05:27:17;6.93;;;6.22;;
37857;SDS011;23695;55.868;37.472;2022-07-06T05:29:43;12.50;;;6.78;;
37857;SDS011;23695;55.868;37.472;2022-07-06T05:32:11;7.05;;;5.40;;
37857;SDS011;23695;55.868;37.472;2022-07-06T05:34:37;13.20;;;6.15;;
37857;SDS011;23695;55.868;37.472;2022-07-06T05:37:04;9.45;;;6.30;;
37857;SDS011;23695;55.868;37.472;2022-07-06T05:39:30;12.05;;;6.00;;
37857;SDS011;23695;55.868;37.472;2022-07-06T05:41:56;9.65;;;6.68;;
37857;SDS011;23695;55.868;37.472;2022-07-06T05:44:22;13.05;;;5.97;;
37857;SDS011;23695;55.868;37.472;2022-07-06T05:46:48;11.95;;;6.20;;
37857;SDS011;23695;55.868;37.472;2022-07-06T05:49:14;8.30;;;6.22;;
37857;SDS011;23695;55.868;37.472;2022-07-06T05:51:58;13.15;;;6.10;;
37857;SDS011;23695;55.868;37.472;2022-07-06T05:54:24;8.13;;;5.15;;
37857;SDS011;23695;55.868;37.472;2022-07-06T05:56:50;8.65;;;5.10;;
37857;SDS011;23695;55.868;37.472;2022-07-06T05:59:16;10.68;;;5.28;;
37857;SDS011;23695;55.868;37.472;2022-07-06T06:01:42;9.07;;;4.93;;
37857;SDS011;23695;55.868;37.472;2022-07-06T06:04:12;9.13;;;5.30;;
37857;SDS011;23695;55.868;37.472;2022-07-06T06:06:38;15.43;;;5.88;;
37857;SDS011;23695;55.868;37.472;2022-07-06T06:09:04;9.25;;;5.40;;
37857;SDS011;23695;55.868;37.472;2022-07-06T06:11:30;9.32;;;5.30;;
37857;SDS011;23695;55.868;37.472;2022-07-06T06:13:56;9.15;;;6.40;;
37857;SDS011;23695;55.868;37.472;2022-07-06T06:16:22;5.78;;;5.20;;
37857;SDS011;23695;55.868;37.472;2022-07-06T06:18:48;7.47;;;5.55;;
37857;SDS011;23695;55.868;37.472;2022-07-06T06:21:13;8.15;;;5.80;;
37857;SDS011;23695;55.868;37.472;2022-07-06T06:23:39;12.45;;;7.32;;
37857;SDS011;23695;55.868;37.472;2022-07-06T06:26:05;10.27;;;8.48;;
37857;SDS011;23695;55.868;37.472;2022-07-06T06:28:31;15.85;;;9.00;;
37857;SDS011;23695;55.868;37.472;2022-07-06T06:30:56;17.58;;;9.48;;
37857;SDS011;23695;55.868;37.472;2022-07-06T06:33:22;16.65;;;8.00;;
37857;SDS011;23695;55.868;37.472;2022-07-06T06:35:49;16.75;;;8.30;;
37857;SDS011;23695;55.868;37.472;2022-07-06T06:38:16;13.23;;;9.18;;
37857;SDS011;23695;55.868;37.472;2022-07-06T06:40:43;18.38;;;8.35;;
37857;SDS011;23695;55.868;37.472;2022-07-06T06:43:09;13.63;;;7.43;;
37857;SDS011;23695;55.868;37.472;2022-07-06T06:45:42;11.52;;;6.95;;
37857;SDS011;23695;55.868;37.472;2022-07-06T06:48:09;12.32;;;6.38;;
37857;SDS011;23695;55.868;37.472;2022-07-06T06:50:35;9.57;;;6.50;;
37857;SDS011;23695;55.868;37.472;2022-07-06T06:53:01;12.23;;;7.00;;
37857;SDS011;23695;55.868;37.472;2022-07-06T06:55:28;27.00;;;6.88;;
37857;SDS011;23695;55.868;37.472;2022-07-06T06:57:53;13.57;;;6.80;;
37857;SDS011;23695;55.868;37.472;2022-07-06T07:00:19;16.98;;;7.43;;
37857;SDS011;23695;55.868;37.472;2022-07-06T07:02:45;11.52;;;7.10;;
37857;SDS011;23695;55.868;37.472;2022-07-06T07:05:12;10.77;;;6.78;;
37857;SDS011;23695;55.868;37.472;2022-07-06T07:07:38;10.98;;;7.00;;
37857;SDS011;23695;55.868;37.472;2022-07-06T07:10:04;11.68;;;7.55;;
37857;SDS011;23695;55.868;37.472;2022-07-06T07:12:31;14.05;;;7.93;;
37857;SDS011;23695;55.868;37.472;2022-07-06T07:14:58;14.77;;;8.00;;
37857;SDS011;23695;55.868;37.472;2022-07-06T07:17:24;10.85;;;7.43;;
37857;SDS011;23695;55.868;37.472;2022-07-06T07:19:50;16.48;;;8.20;;
37857;SDS011;23695;55.868;37.472;2022-07-06T07:22:16;14.45;;;7.00;;
37857;SDS011;23695;55.868;37.472;2022-07-06T07:24:42;15.15;;;7.82;;
37857;SDS011;23695;55.868;37.472;2022-07-06T07:27:07;13.07;;;8.40;;
37857;SDS011;23695;55.868;37.472;2022-07-06T07:29:33;15.43;;;8.05;;
37857;SDS011;23695;55.868;37.472;2022-07-06T07:31:59;15.95;;;7.93;;
37857;SDS011;23695;55.868;37.472;2022-07-06T07:34:25;12.88;;;8.35;;
37857;SDS011;23695;55.868;37.472;2022-07-06T07:36:51;16.95;;;8.68;;
37857;SDS011;23695;55.868;37.472;2022-07-06T07:39:16;15.65;;;7.38;;
37857;SDS011;23695;55.868;37.472;2022-07-06T07:41:42;16.52;;;7.00;;
37857;SDS011;23695;55.868;37.472;2022-07-06T07:44:08;8.68;;;7.18;;
37857;SDS011;23695;55.868;37.472;2022-07-06T07:46:34;9.48;;;6.60;;
37857;SDS011;23695;55.868;37.472;2022-07-06T07:48:59;8.70;;;6.70;;
37857;SDS011;23695;55.868;37.472;2022-07-06T07:51:27;7.70;;;6.38;;
37857;SDS011;23695;55.868;37.472;2022-07-06T07:53:53;10.07;;;6.20;;
37857;SDS011;23695;55.868;37.472;2022-07-06T07:56:18;10.55;;;7.20;;
37857;SDS011;23695;55.868;37.472;2022-07-06T07:58:44;11.75;;;7.03;;
37857;SDS011;23695;55.868;37.472;2022-07-06T08:01:12;11.73;;;6.85;;
37857;SDS011;23695;55.868;37.472;2022-07-06T08:03:38;11.40;;;6.97;;
37857;SDS011;23695;55.868;37.472;2022-07-06T08:06:04;9.07;;;7.18;;
37857;SDS011;23695;55.868;37.472;2022-07-06T08:08:30;10.30;;;7.07;;
37857;SDS011;23695;55.868;37.472;2022-07-06T08:10:56;11.35;;;7.20;;
37857;SDS011;23695;55.868;37.472;2022-07-06T08:13:21;7.45;;;6.68;;
37857;SDS011;23695;55.868;37.472;2022-07-06T08:15:47;13.27;;;6.80;;
37857;SDS011;23695;55.868;37.472;2022-07-06T08:18:13;9.73;;;7.63;;
37857;SDS011;23695;55.868;37.472;2022-07-06T08:20:39;10.02;;;7.75;;
37857;SDS011;23695;55.868;37.472;2022-07-06T08:23:04;8.73;;;7.82;;
37857;SDS011;23695;55.868;37.472;2022-07-06T08:25:31;9.40;;;8.25;;
37857;SDS011;23695;55.868;37.472;2022-07-06T08:27:57;11.15;;;8.38;;
37857;SDS011;23695;55.868;37.472;2022-07-06T08:30:23;12.90;;;8.85;;
37857;SDS011;23695;55.868;37.472;2022-07-06T08:32:49;11.45;;;8.90;;
37857;SDS011;23695;55.868;37.472;2022-07-06T08:35:15;13.00;;;8.65;;
37857;SDS011;23695;55.868;37.472;2022-07-06T08:37:41;11.77;;;9.65;;
37857;SDS011;23695;55.868;37.472;2022-07-06T08:40:07;11.02;;;9.15;;
37857;SDS011;23695;55.868;37.472;2022-07-06T08:42:36;20.08;;;9.30;;
37857;SDS011;23695;55.868;37.472;2022-07-06T08:45:03;13.65;;;9.20;;
37857;SDS011;23695;55.868;37.472;2022-07-06T08:47:31;12.50;;;10.00;;
37857;SDS011;23695;55.868;37.472;2022-07-06T08:49:57;11.07;;;9.88;;
37857;SDS011;23695;55.868;37.472;2022-07-06T08:52:23;12.55;;;9.93;;
37857;SDS011;23695;55.868;37.472;2022-07-06T08:54:49;12.93;;;10.75;;
37857;SDS011;23695;55.868;37.472;2022-07-06T08:57:15;14.57;;;10.15;;
37857;SDS011;23695;55.868;37.472;2022-07-06T08:59:42;14.93;;;10.57;;
37857;SDS011;23695;55.868;37.472;2022-07-06T09:02:11;11.68;;;10.48;;
37857;SDS011;23695;55.868;37.472;2022-07-06T09:04:38;11.63;;;10.48;;
37857;SDS011;23695;55.868;37.472;2022-07-06T09:07:07;15.32;;;10.52;;
37857;SDS011;23695;55.868;37.472;2022-07-06T09:09:32;15.13;;;11.82;;
37857;SDS011;23695;55.868;37.472;2022-07-06T09:11:59;15.02;;;12.43;;
37857;SDS011;23695;55.868;37.472;2022-07-06T09:14:24;16.48;;;11.85;;
37857;SDS011;23695;55.868;37.472;2022-07-06T09:16:51;13.60;;;11.63;;
37857;SDS011;23695;55.868;37.472;2022-07-06T09:19:25;14.10;;;11.57;;
37857;SDS011;23695;55.868;37.472;2022-07-06T09:21:51;17.80;;;11.85;;
37857;SDS011;23695;55.868;37.472;2022-07-06T09:24:17;19.52;;;12.25;;
37857;SDS011;23695;55.868;37.472;2022-07-06T09:26:44;13.95;;;11.55;;
37857;SDS011;23695;55.868;37.472;2022-07-06T09:29:10;13.10;;;11.80;;
37857;SDS011;23695;55.868;37.472;2022-07-06T09:31:36;16.42;;;11.45;;
37857;SDS011;23695;55.868;37.472;2022-07-06T09:34:06;12.48;;;11.18;;
37857;SDS011;23695;55.868;37.472;2022-07-06T09:36:39;12.40;;;11.07;;
37857;SDS011;23695;55.868;37.472;2022-07-06T09:39:17;14.70;;;11.00;;
37857;SDS011;23695;55.868;37.472;2022-07-06T09:41:48;19.15;;;13.13;;
37857;SDS011;23695;55.868;37.472;2022-07-06T09:44:20;12.60;;;10.75;;
37857;SDS011;23695;55.868;37.472;2022-07-06T09:46:57;14.32;;;10.40;;
37857;SDS011;23695;55.868;37.472;2022-07-06T09:49:24;11.65;;;10.10;;
37857;SDS011;23695;55.868;37.472;2022-07-06T09:51:51;13.23;;;10.07;;
37857;SDS011;23695;55.868;37.472;2022-07-06T09:54:18;12.43;;;9.38;;
37857;SDS011;23695;55.868;37.472;2022-07-06T09:56:45;12.35;;;9.45;;
37857;SDS011;23695;55.868;37.472;2022-07-06T09:59:19;13.38;;;10.45;;
37857;SDS011;23695;55.868;37.472;2022-07-06T10:01:51;13.80;;;10.82;;
37857;SDS011;23695;55.868;37.472;2022-07-06T10:04:20;16.75;;;12.73;;
37857;SDS011;23695;55.868;37.472;2022-07-06T10:06:46;16.60;;;11.65;;
37857;SDS011;23695;55.868;37.472;2022-07-06T10:09:13;19.58;;;11.95;;
37857;SDS011;23695;55.868;37.472;2022-07-06T10:11:42;20.13;;;11.05;;
37857;SDS011;23695;55.868;37.472;2022-07-06T10:14:12;17.58;;;10.13;;
37857;SDS011;23695;55.868;37.472;2022-07-06T10:16:42;16.30;;;9.68;;
37857;SDS011;23695;55.868;37.472;2022-07-06T10:19:09;14.63;;;10.10;;
37857;SDS011;23695;55.868;37.472;2022-07-06T10:21:38;17.75;;;10.32;;
37857;SDS011;23695;55.868;37.472;2022-07-06T10:24:05;16.23;;;10.57;;
37857;SDS011;23695;55.868;37.472;2022-07-06T10:26:33;12.05;;;9.95;;
37857;SDS011;23695;55.868;37.472;2022-07-06T10:29:00;13.73;;;9.60;;
37857;SDS011;23695;55.868;37.472;2022-07-06T10:31:29;11.55;;;9.82;;
37857;SDS011;23695;55.868;37.472;2022-07-06T10:33:59;14.57;;;8.75;;
37857;SDS011;23695;55.868;37.472;2022-07-06T10:36:27;16.05;;;9.45;;
37857;SDS011;23695;55.868;37.472;2022-07-06T10:38:53;12.02;;;9.40;;
37857;SDS011;23695;55.868;37.472;2022-07-06T10:41:30;18.95;;;10.05;;
37857;SDS011;23695;55.868;37.472;2022-07-06T10:43:57;13.35;;;10.43;;
37857;SDS011;23695;55.868;37.472;2022-07-06T10:46:23;18.92;;;10.68;;
37857;SDS011;23695;55.868;37.472;2022-07-06T10:48:53;18.13;;;10.60;;
37857;SDS011;23695;55.868;37.472;2022-07-06T10:51:26;14.32;;;10.05;;
37857;SDS011;23695;55.868;37.472;2022-07-06T10:53:57;19.15;;;10.77;;
37857;SDS011;23695;55.868;37.472;2022-07-06T10:56:32;14.10;;;10.10;;
37857;SDS011;23695;55.868;37.472;2022-07-06T10:59:02;12.52;;;10.10;;
37857;SDS011;23695;55.868;37.472;2022-07-06T11:01:34;16.80;;;10.68;;
37857;SDS011;23695;55.868;37.472;2022-07-06T11:06:28;15.45;;;11.32;;
37857;SDS011;23695;55.868;37.472;2022-07-06T11:08:58;12.73;;;10.32;;
37857;SDS011;23695;55.868;37.472;2022-07-06T11:21:46;10.40;;;9.30;;
37857;SDS011;23695;55.868;37.472;2022-07-06T11:24:20;13.07;;;10.10;;
37857;SDS011;23695;55.868;37.472;2022-07-06T11:27:00;14.05;;;9.32;;
37857;SDS011;23695;55.868;37.472;2022-07-06T11:29:27;11.25;;;9.43;;
37857;SDS011;23695;55.868;37.472;2022-07-06T11:31:55;14.10;;;9.05;;
37857;SDS011;23695;55.868;37.472;2022-07-06T11:34:25;11.75;;;8.73;;
37857;SDS011;23695;55.868;37.472;2022-07-06T11:36:55;11.93;;;10.05;;
37857;SDS011;23695;55.868;37.472;2022-07-06T11:39:21;13.20;;;9.30;;
37857;SDS011;23695;55.868;37.472;2022-07-06T11:41:47;10.35;;;9.15;;
37857;SDS011;23695;55.868;37.472;2022-07-06T11:44:13;13.10;;;9.27;;
37857;SDS011;23695;55.868;37.472;2022-07-06T11:46:39;11.77;;;8.20;;
37857;SDS011;23695;55.868;37.472;2022-07-06T11:49:06;10.73;;;8.80;;
37857;SDS011;23695;55.868;37.472;2022-07-06T11:51:34;11.40;;;8.77;;
37857;SDS011;23695;55.868;37.472;2022-07-06T11:54:07;13.23;;;7.85;;
37857;SDS011;23695;55.868;37.472;2022-07-06T11:59:20;12.10;;;8.60;;
37857;SDS011;23695;55.868;37.472;2022-07-06T12:02:09;12.52;;;8.13;;
37857;SDS011;23695;55.868;37.472;2022-07-06T12:04:44;16.33;;;8.73;;
37857;SDS011;23695;55.868;37.472;2022-07-06T12:07:14;13.80;;;8.43;;
37857;SDS011;23695;55.868;37.472;2022-07-06T12:09:42;10.63;;;8.60;;
37857;SDS011;23695;55.868;37.472;2022-07-06T12:12:09;12.88;;;8.93;;
37857;SDS011;23695;55.868;37.472;2022-07-06T12:14:37;12.43;;;8.73;;
37857;SDS011;23695;55.868;37.472;2022-07-06T12:17:10;15.52;;;8.10;;
37857;SDS011;23695;55.868;37.472;2022-07-06T12:19:38;13.35;;;8.65;;
37857;SDS011;23695;55.868;37.472;2022-07-06T12:22:04;9.73;;;7.32;;
37857;SDS011;23695;55.868;37.472;2022-07-06T12:24:31;10.88;;;8.40;;
37857;SDS011;23695;55.868;37.472;2022-07-06T12:27:10;10.95;;;7.97;;
37857;SDS011;23695;55.868;37.472;2022-07-06T12:29:36;9.32;;;7.55;;
37857;SDS011;23695;55.868;37.472;2022-07-06T12:32:02;11.85;;;7.57;;
37857;SDS011;23695;55.868;37.472;2022-07-06T12:34:28;10.93;;;7.82;;
37857;SDS011;23695;55.868;37.472;2022-07-06T12:37:08;8.93;;;7.25;;
37857;SDS011;23695;55.868;37.472;2022-07-06T12:39:47;8.80;;;7.88;;
37857;SDS011;23695;55.868;37.472;2022-07-06T12:44:42;8.05;;;7.00;;
37857;SDS011;23695;55.868;37.472;2022-07-06T12:47:10;9.02;;;7.57;;
37857;SDS011;23695;55.868;37.472;2022-07-06T12:49:37;9.13;;;8.10;;
37857;SDS011;23695;55.868;37.472;2022-07-06T12:54:33;11.05;;;7.30;;
37857;SDS011;23695;55.868;37.472;2022-07-06T12:59:38;13.30;;;8.07;;
37857;SDS011;23695;55.868;37.472;2022-07-06T13:02:07;9.85;;;8.48;;
37857;SDS011;23695;55.868;37.472;2022-07-06T13:04:35;10.10;;;7.78;;
37857;SDS011;23695;55.868;37.472;2022-07-06T13:07:02;10.45;;;8.27;;
37857;SDS011;23695;55.868;37.472;2022-07-06T13:09:29;9.63;;;8.02;;
37857;SDS011;23695;55.868;37.472;2022-07-06T13:11:55;13.20;;;7.97;;
37857;SDS011;23695;55.868;37.472;2022-07-06T13:14:21;11.73;;;8.48;;
37857;SDS011;23695;55.868;37.472;2022-07-06T13:16:48;13.15;;;8.25;;
37857;SDS011;23695;55.868;37.472;2022-07-06T13:19:14;9.65;;;7.95;;
37857;SDS011;23695;55.868;37.472;2022-07-06T13:21:40;12.00;;;7.90;;
37857;SDS011;23695;55.868;37.472;2022-07-06T13:24:06;10.15;;;7.75;;
37857;SDS011;23695;55.868;37.472;2022-07-06T13:26:32;10.77;;;7.75;;
37857;SDS011;23695;55.868;37.472;2022-07-06T13:28:59;13.88;;;8.45;;
37857;SDS011;23695;55.868;37.472;2022-07-06T13:31:26;10.45;;;8.15;;
37857;SDS011;23695;55.868;37.472;2022-07-06T13:33:53;9.98;;;8.10;;
37857;SDS011;23695;55.868;37.472;2022-07-06T13:36:19;14.02;;;8.05;;
37857;SDS011;23695;55.868;37.472;2022-07-06T13:38:45;10.25;;;7.90;;
37857;SDS011;23695;55.868;37.472;2022-07-06T13:41:11;15.52;;;7.47;;
37857;SDS011;23695;55.868;37.472;2022-07-06T13:43:37;8.98;;;7.32;;
37857;SDS011;23695;55.868;37.472;2022-07-06T13:46:03;10.52;;;8.30;;
37857;SDS011;23695;55.868;37.472;2022-07-06T13:48:30;12.65;;;8.25;;
37857;SDS011;23695;55.868;37.472;2022-07-06T13:50:57;10.43;;;8.40;;
37857;SDS011;23695;55.868;37.472;2022-07-06T13:53:22;10.60;;;8.18;;
37857;SDS011;23695;55.868;37.472;2022-07-06T13:55:48;12.15;;;7.50;;
37857;SDS011;23695;55.868;37.472;2022-07-06T13:58:14;14.52;;;8.32;;
37857;SDS011;23695;55.868;37.472;2022-07-06T14:00:40;10.95;;;8.50;;
37857;SDS011;23695;55.868;37.472;2022-07-06T14:03:06;14.70;;;10.25;;
37857;SDS011;23695;55.868;37.472;2022-07-06T14:05:33;11.82;;;7.55;;
37857;SDS011;23695;55.868;37.472;2022-07-06T14:08:00;10.13;;;7.50;;
37857;SDS011;23695;55.868;37.472;2022-07-06T14:10:26;11.18;;;8.02;;
37857;SDS011;23695;55.868;37.472;2022-07-06T14:12:52;8.10;;;7.28;;
37857;SDS011;23695;55.868;37.472;2022-07-06T14:15:18;10.93;;;7.93;;
37857;SDS011;23695;55.868;37.472;2022-07-06T14:17:44;9.93;;;7.05;;
37857;SDS011;23695;55.868;37.472;2022-07-06T14:20:10;10.70;;;8.15;;
37857;SDS011;23695;55.868;37.472;2022-07-06T14:22:37;16.52;;;7.75;;
37857;SDS011;23695;55.868;37.472;2022-07-06T14:25:02;16.83;;;7.80;;
37857;SDS011;23695;55.868;37.472;2022-07-06T14:27:30;13.77;;;8.20;;
37857;SDS011;23695;55.868;37.472;2022-07-06T14:29:56;12.98;;;7.95;;
37857;SDS011;23695;55.868;37.472;2022-07-06T14:32:22;14.63;;;8.05;;
37857;SDS011;23695;55.868;37.472;2022-07-06T14:34:47;15.43;;;7.88;;
37857;SDS011;23695;55.868;37.472;2022-07-06T14:37:13;8.30;;;7.50;;
37857;SDS011;23695;55.868;37.472;2022-07-06T14:39:39;12.52;;;8.40;;
37857;SDS011;23695;55.868;37.472;2022-07-06T14:42:05;12.38;;;8.35;;